Time;durP1;ratioP1;P1;durP2;ratioP2;P2;SDS_P1;SDS_P2;PMS_P1;PMS_P2;Temp;Humidity;BMP_temperature;BMP_pressure;BME280_temperature;BME280_humidity;BME280_pressure;Samples;Min_cycle;Max_cycle;Signal;HPM_P1;HPM_P2
2023/06/01 00:00:44;;;;;;;10.30;4.43;;;12.20;99.90;;;;;;5044627;28;20244;-49
2023/06/01 00:03:12;;;;;;;9.77;4.30;;;12.20;99.90;;;;;;5052597;28;20293;-49
2023/06/01 00:05:40;;;;;;;10.60;4.57;;;12.30;99.90;;;;;;5047575;28;20623;-48
2023/06/01 00:08:10;;;;;;;10.20;4.37;;;12.30;99.90;;;;;;5048172;28;20222;-48
2023/06/01 00:10:38;;;;;;;12.93;5.03;;;12.30;99.90;;;;;;5052436;28;20231;-51
2023/06/01 00:13:06;;;;;;;11.00;5.27;;;12.30;99.90;;;;;;5052474;28;20231;-49
2023/06/01 00:15:35;;;;;;;13.30;4.80;;;12.30;99.90;;;;;;5035425;28;20568;-49
2023/06/01 00:18:05;;;;;;;11.53;4.50;;;12.30;99.90;;;;;;5032455;28;20323;-51
2023/06/01 00:20:33;;;;;;;10.93;4.13;;;12.40;99.90;;;;;;5052396;28;20323;-48
2023/06/01 00:23:02;;;;;;;13.57;4.50;;;12.40;99.90;;;;;;5052270;28;20243;-50
2023/06/01 00:25:32;;;;;;;11.30;4.50;;;12.40;99.90;;;;;;5052148;28;20258;-52
2023/06/01 00:28:02;;;;;;;11.13;4.63;;;12.50;99.90;;;;;;5052292;28;20230;-47
2023/06/01 00:30:30;;;;;;;14.63;5.00;;;12.50;99.90;;;;;;5044127;28;20267;-51
2023/06/01 00:32:58;;;;;;;12.67;5.33;;;12.40;99.90;;;;;;5051558;28;20235;-47
2023/06/01 00:35:26;;;;;;;11.90;5.00;;;12.50;99.90;;;;;;5049420;28;20763;-49
2023/06/01 00:37:54;;;;;;;12.90;5.87;;;12.40;99.90;;;;;;5052170;28;20241;-50
2023/06/01 00:40:22;;;;;;;12.43;4.77;;;12.40;99.90;;;;;;5050953;28;20233;-51
2023/06/01 00:42:51;;;;;;;10.40;4.53;;;12.40;99.90;;;;;;5052178;28;20242;-49
2023/06/01 00:45:21;;;;;;;12.50;4.60;;;12.40;99.90;;;;;;5051274;28;20706;-49
2023/06/01 00:47:49;;;;;;;13.60;4.93;;;12.40;99.90;;;;;;5050730;28;20262;-51
2023/06/01 00:50:17;;;;;;;10.67;4.70;;;12.30;99.90;;;;;;5053858;28;20269;-49
2023/06/01 00:52:47;;;;;;;11.90;4.67;;;12.30;99.90;;;;;;5051973;28;20227;-50
2023/06/01 00:55:15;;;;;;;14.03;5.33;;;12.30;99.90;;;;;;5052080;28;20584;-51
2023/06/01 00:57:44;;;;;;;13.73;5.40;;;12.30;99.90;;;;;;5051908;28;20709;-50
2023/06/01 01:00:14;;;;;;;13.07;5.30;;;12.30;99.90;;;;;;5047682;28;20227;-50
2023/06/01 01:02:44;;;;;;;12.50;5.27;;;12.30;99.90;;;;;;5049643;28;20251;-49
2023/06/01 01:05:12;;;;;;;13.73;5.43;;;12.30;99.90;;;;;;5057361;28;20223;-50
2023/06/01 01:07:51;;;;;;;12.97;5.60;;;12.40;99.90;;;;;;5055540;28;20318;-50
2023/06/01 01:10:27;;;;;;;13.13;5.40;;;12.40;99.90;;;;;;5055785;28;20695;-49
2023/06/01 01:13:01;;;;;;;14.07;5.50;;;12.30;99.90;;;;;;5055715;28;20595;-48
2023/06/01 01:15:46;;;;;;;13.70;5.40;;;12.40;99.90;;;;;;5054363;28;20296;-50
2023/06/01 01:18:19;;;;;;;13.17;5.10;;;12.30;99.90;;;;;;5054287;28;20227;-50
2023/06/01 01:20:57;;;;;;;12.47;5.23;;;12.30;99.90;;;;;;5050346;28;20238;-51
2023/06/01 01:23:45;;;;;;;11.73;5.20;;;12.20;99.90;;;;;;5055343;28;20222;-49
2023/06/01 01:26:25;;;;;;;14.50;4.93;;;12.20;99.90;;;;;;5049108;28;20310;-47
2023/06/01 01:29:01;;;;;;;13.03;5.17;;;12.20;99.90;;;;;;5053477;28;20233;-49
2023/06/01 01:31:31;;;;;;;12.90;4.97;;;12.20;99.90;;;;;;5042560;28;20732;-51
2023/06/01 01:33:59;;;;;;;12.97;5.03;;;12.20;99.90;;;;;;5053859;28;20324;-50
2023/06/01 01:36:28;;;;;;;13.37;4.90;;;12.20;99.90;;;;;;5049147;28;20314;-50
2023/06/01 01:38:56;;;;;;;18.67;5.83;;;12.20;99.90;;;;;;5053815;28;20239;-50
2023/06/01 01:41:25;;;;;;;15.10;5.30;;;12.20;99.90;;;;;;5055096;28;20691;-49
2023/06/01 01:43:57;;;;;;;12.87;5.13;;;12.20;99.90;;;;;;5055198;28;20253;-48
2023/06/01 01:46:27;;;;;;;13.80;5.67;;;12.20;99.90;;;;;;5053509;28;20239;-49
2023/06/01 01:49:02;;;;;;;17.63;5.03;;;12.20;99.90;;;;;;5058055;28;20219;-49
2023/06/01 01:51:37;;;;;;;8.77;5.07;;;12.10;99.90;;;;;;5049973;28;20271;-49
2023/06/01 01:54:07;;;;;;;17.90;5.47;;;12.20;99.90;;;;;;5051056;28;20717;-48
2023/06/01 01:56:37;;;;;;;11.33;5.43;;;12.10;99.90;;;;;;5034771;28;20326;-50
2023/06/01 01:59:07;;;;;;;11.53;4.93;;;12.10;99.90;;;;;;5034890;28;20310;-50
2023/06/01 02:01:36;;;;;;;12.20;5.17;;;12.10;99.90;;;;;;5040846;28;20281;-50
2023/06/01 02:04:07;;;;;;;15.40;4.47;;;12.20;99.90;;;;;;5040837;28;20230;-50
2023/06/01 02:06:38;;;;;;;13.93;5.10;;;12.10;99.90;;;;;;5047018;28;20231;-50
2023/06/01 02:09:07;;;;;;;16.80;5.37;;;12.10;99.90;;;;;;5034760;28;20219;-50
2023/06/01 02:11:36;;;;;;;14.33;5.07;;;12.10;99.90;;;;;;5033356;28;20329;-51
2023/06/01 02:14:05;;;;;;;12.87;5.27;;;12.10;99.90;;;;;;5050075;28;20290;-49
2023/06/01 02:16:34;;;;;;;14.30;5.10;;;12.10;99.90;;;;;;5054259;28;20218;-47
2023/06/01 02:19:02;;;;;;;10.33;4.57;;;12.00;99.90;;;;;;5056658;28;20683;-51
2023/06/01 02:21:31;;;;;;;9.83;4.30;;;12.00;99.90;;;;;;5048305;28;20248;-50
2023/06/01 02:24:07;;;;;;;12.67;4.90;;;12.00;99.90;;;;;;5053092;28;20735;-51
2023/06/01 02:26:35;;;;;;;12.63;4.40;;;12.00;99.90;;;;;;5054236;28;20693;-49
2023/06/01 02:29:05;;;;;;;11.30;4.70;;;11.90;99.90;;;;;;5054254;28;20643;-49
2023/06/01 02:31:35;;;;;;;11.30;4.23;;;12.00;99.90;;;;;;5044780;28;20718;-50
2023/06/01 02:34:04;;;;;;;13.20;4.73;;;11.90;99.90;;;;;;5044840;28;20260;-49
2023/06/01 02:36:32;;;;;;;9.57;4.40;;;12.00;99.90;;;;;;5049530;28;20273;-51
2023/06/01 02:39:00;;;;;;;11.07;4.20;;;12.00;99.90;;;;;;5052711;28;20625;-50
2023/06/01 02:41:29;;;;;;;12.70;4.57;;;12.10;99.90;;;;;;5054088;28;20219;-48
2023/06/01 02:43:57;;;;;;;13.63;4.70;;;12.10;99.90;;;;;;5052699;28;20234;-48
2023/06/01 02:46:26;;;;;;;10.70;4.90;;;12.00;99.90;;;;;;5052770;28;20240;-48
2023/06/01 02:48:55;;;;;;;11.10;4.83;;;12.00;99.90;;;;;;5055357;28;20739;-50
2023/06/01 02:51:23;;;;;;;14.00;4.90;;;12.00;99.90;;;;;;5046093;28;20634;-52
2023/06/01 02:54:03;;;;;;;13.67;5.30;;;11.90;99.90;;;;;;5032596;28;20227;-48
2023/06/01 02:56:31;;;;;;;12.30;4.70;;;11.90;99.90;;;;;;5032347;28;20331;-51
2023/06/01 02:59:11;;;;;;;9.60;5.03;;;11.90;99.90;;;;;;5034033;28;20256;-52
2023/06/01 03:01:46;;;;;;;13.00;5.37;;;12.00;99.90;;;;;;5042508;28;20237;-50
2023/06/01 03:04:17;;;;;;;13.37;6.57;;;12.00;99.90;;;;;;5051510;28;20227;-50
2023/06/01 03:06:46;;;;;;;17.47;5.83;;;12.00;99.90;;;;;;5049678;28;20702;-49
2023/06/01 03:09:33;;;;;;;13.97;5.20;;;12.00;99.90;;;;;;5052000;28;20239;-52
2023/06/01 03:12:02;;;;;;;13.47;5.33;;;12.00;99.90;;;;;;5053724;28;20222;-47
2023/06/01 03:14:31;;;;;;;11.83;5.13;;;12.10;99.90;;;;;;5052017;28;20272;-48
2023/06/01 03:16:59;;;;;;;12.83;5.20;;;12.00;99.90;;;;;;5052007;28;20314;-48
2023/06/01 03:19:29;;;;;;;13.90;4.83;;;12.00;99.90;;;;;;5051334;28;20563;-49
2023/06/01 03:22:00;;;;;;;11.40;4.40;;;11.90;99.90;;;;;;5050977;28;20323;-52
2023/06/01 03:24:28;;;;;;;13.20;4.77;;;11.90;99.90;;;;;;5053012;28;20709;-50
2023/06/01 03:27:04;;;;;;;10.73;4.57;;;12.00;99.90;;;;;;5051436;28;20229;-49
2023/06/01 03:29:35;;;;;;;15.07;5.17;;;12.00;99.90;;;;;;5051627;28;20253;-50
2023/06/01 03:32:03;;;;;;;12.07;5.17;;;12.10;99.90;;;;;;5043841;28;20226;-47
2023/06/01 03:34:36;;;;;;;13.33;5.60;;;12.00;99.90;;;;;;5052873;28;20223;-48
2023/06/01 03:37:04;;;;;;;14.20;5.47;;;12.10;99.90;;;;;;5044842;28;20224;-49
2023/06/01 03:39:33;;;;;;;13.20;4.67;;;12.00;99.90;;;;;;5052786;28;20223;-50
2023/06/01 03:42:03;;;;;;;11.27;5.13;;;12.00;99.90;;;;;;5051673;28;20227;-47
2023/06/01 03:44:31;;;;;;;14.90;5.00;;;12.00;99.90;;;;;;5051408;28;20227;-47
2023/06/01 03:46:59;;;;;;;11.90;5.03;;;11.90;99.90;;;;;;5049700;28;20318;-47
2023/06/01 03:49:28;;;;;;;10.00;4.20;;;11.90;99.90;;;;;;5049199;28;20318;-49
2023/06/01 03:51:58;;;;;;;12.83;5.20;;;11.90;99.90;;;;;;5050557;28;20297;-49
2023/06/01 03:54:26;;;;;;;12.73;5.40;;;11.90;99.90;;;;;;5052500;28;20584;-51
2023/06/01 03:56:55;;;;;;;13.07;5.40;;;11.90;99.90;;;;;;5051475;28;20233;-50
2023/06/01 03:59:23;;;;;;;12.07;5.30;;;11.90;99.90;;;;;;5052729;28;20591;-49
2023/06/01 04:01:51;;;;;;;14.33;5.37;;;12.00;99.90;;;;;;5038137;28;20798;-46
2023/06/01 04:04:25;;;;;;;12.10;5.10;;;12.10;99.90;;;;;;5050117;28;20222;-50
2023/06/01 04:06:54;;;;;;;11.33;4.93;;;12.40;99.90;;;;;;5051823;28;20281;-50
2023/06/01 04:09:23;;;;;;;11.80;5.20;;;12.30;99.90;;;;;;5051240;28;20235;-49
2023/06/01 04:11:51;;;;;;;10.80;4.93;;;12.20;99.90;;;;;;5047838;28;20233;-48
2023/06/01 04:14:22;;;;;;;12.27;5.00;;;12.20;99.90;;;;;;5041304;28;20794;-48
2023/06/01 04:16:50;;;;;;;16.37;5.33;;;12.20;99.90;;;;;;5031185;28;20223;-48
2023/06/01 04:19:18;;;;;;;10.60;5.20;;;12.10;99.90;;;;;;5039509;28;20281;-49
2023/06/01 04:21:50;;;;;;;15.13;5.77;;;12.20;99.90;;;;;;5048850;28;20338;-49
2023/06/01 04:24:22;;;;;;;15.17;5.50;;;12.20;99.90;;;;;;5051135;28;20715;-51
2023/06/01 04:26:50;;;;;;;11.23;5.23;;;12.30;99.90;;;;;;5051045;28;20317;-51
2023/06/01 04:29:21;;;;;;;17.10;5.47;;;12.30;99.90;;;;;;5052532;28;20250;-49
2023/06/01 04:31:49;;;;;;;12.83;5.30;;;12.40;99.90;;;;;;5051929;28;20243;-48
2023/06/01 04:34:18;;;;;;;15.43;5.93;;;12.50;99.90;;;;;;5052489;28;20641;-50
2023/06/01 04:36:46;;;;;;;12.20;5.90;;;12.40;99.90;;;;;;5049846;28;20253;-50
2023/06/01 04:39:14;;;;;;;12.27;5.67;;;12.30;99.90;;;;;;5054248;28;20325;-48
2023/06/01 04:41:44;;;;;;;11.93;5.30;;;12.30;99.90;;;;;;5048343;28;20231;-50
2023/06/01 04:44:13;;;;;;;17.37;6.10;;;12.30;99.90;;;;;;5050023;28;20231;-47
2023/06/01 04:46:41;;;;;;;10.00;5.20;;;12.30;99.90;;;;;;5041575;28;20242;-48
2023/06/01 04:49:11;;;;;;;11.37;5.27;;;12.30;99.90;;;;;;5054752;28;20223;-50
2023/06/01 04:51:40;;;;;;;14.80;5.17;;;12.30;99.90;;;;;;5049915;28;20713;-48
2023/06/01 04:54:09;;;;;;;14.27;5.53;;;12.20;99.90;;;;;;5054742;28;20564;-49
2023/06/01 04:56:37;;;;;;;12.17;5.57;;;12.20;99.90;;;;;;5054846;28;20231;-50
2023/06/01 04:59:07;;;;;;;13.50;5.73;;;12.20;99.90;;;;;;5054606;28;20269;-49
2023/06/01 05:01:38;;;;;;;13.73;6.00;;;12.20;99.90;;;;;;5053714;28;20333;-46
2023/06/01 05:04:07;;;;;;;14.20;5.50;;;12.20;99.90;;;;;;5052552;28;20234;-50
2023/06/01 05:06:36;;;;;;;11.20;4.63;;;12.20;99.90;;;;;;5041477;28;20587;-46
2023/06/01 05:09:04;;;;;;;15.33;5.43;;;12.30;99.90;;;;;;5047506;28;20578;-51
2023/06/01 05:11:33;;;;;;;9.87;4.73;;;12.20;99.90;;;;;;5054317;28;20323;-47
2023/06/01 05:14:02;;;;;;;9.57;4.67;;;12.20;99.90;;;;;;5054341;28;20616;-48
2023/06/01 05:16:33;;;;;;;10.60;4.40;;;12.20;99.90;;;;;;5054431;28;20245;-48
2023/06/01 05:19:03;;;;;;;11.33;5.00;;;12.30;99.90;;;;;;5057192;28;20760;-47
2023/06/01 05:21:32;;;;;;;13.57;5.30;;;12.40;99.90;;;;;;5051954;28;20231;-48
2023/06/01 05:24:01;;;;;;;11.17;4.70;;;12.60;99.90;;;;;;5055476;28;20223;-50
2023/06/01 05:26:29;;;;;;;9.57;4.40;;;12.50;99.90;;;;;;5047781;28;21345;-51
2023/06/01 05:28:58;;;;;;;9.43;4.30;;;12.40;99.90;;;;;;5049148;28;20618;-51
2023/06/01 05:31:26;;;;;;;11.93;4.90;;;12.30;99.90;;;;;;5044033;28;20230;-50
2023/06/01 05:33:58;;;;;;;13.90;4.37;;;12.30;99.90;;;;;;5059528;28;20223;-49
2023/06/01 05:36:31;;;;;;;14.10;4.93;;;12.40;99.90;;;;;;5042221;28;20254;-48
2023/06/01 05:39:00;;;;;;;11.40;4.50;;;12.40;99.90;;;;;;5047742;28;20718;-49
2023/06/01 05:41:28;;;;;;;11.63;5.20;;;12.40;99.90;;;;;;5053793;28;20243;-50
2023/06/01 05:43:57;;;;;;;15.87;5.77;;;12.60;99.90;;;;;;5054079;28;20242;-49
2023/06/01 05:46:25;;;;;;;14.00;5.20;;;12.70;99.90;;;;;;5038864;28;20235;-48
2023/06/01 05:48:55;;;;;;;13.13;5.40;;;12.70;99.90;;;;;;5041670;28;20628;-52
2023/06/01 05:51:24;;;;;;;11.40;4.93;;;12.70;99.90;;;;;;5053721;28;20234;-49
2023/06/01 05:53:53;;;;;;;14.00;5.40;;;12.70;99.90;;;;;;5053843;28;20567;-49
2023/06/01 05:56:21;;;;;;;15.73;6.57;;;12.70;99.90;;;;;;5054862;28;20694;-50
2023/06/01 05:58:52;;;;;;;12.50;4.83;;;12.70;99.90;;;;;;5053575;28;20296;-50
2023/06/01 06:01:22;;;;;;;12.13;5.17;;;12.60;99.90;;;;;;5048705;28;20234;-49
2023/06/01 06:03:50;;;;;;;13.33;4.73;;;12.70;99.90;;;;;;5040446;28;20222;-51
2023/06/01 06:06:19;;;;;;;12.20;4.57;;;12.70;99.90;;;;;;5044204;28;20241;-48
2023/06/01 06:08:52;;;;;;;11.67;4.63;;;12.70;99.90;;;;;;5044481;28;20637;-48
2023/06/01 06:11:21;;;;;;;11.90;4.77;;;12.60;99.90;;;;;;5040346;28;20243;-47
2023/06/01 06:13:50;;;;;;;14.00;5.73;;;12.60;99.90;;;;;;5043035;28;20235;-50
2023/06/01 06:16:18;;;;;;;15.23;5.17;;;12.60;99.90;;;;;;5039796;28;20237;-50
2023/06/01 06:18:46;;;;;;;12.17;4.60;;;12.80;99.90;;;;;;5045751;28;20291;-48
2023/06/01 06:21:15;;;;;;;12.70;4.70;;;12.70;99.90;;;;;;5039401;28;20235;-47
2023/06/01 06:23:46;;;;;;;12.53;4.53;;;12.60;99.90;;;;;;5047423;28;20691;-47
2023/06/01 06:26:15;;;;;;;13.23;4.77;;;12.60;99.90;;;;;;5044147;28;20721;-47
2023/06/01 06:28:43;;;;;;;10.33;4.60;;;12.60;99.90;;;;;;5039534;28;20236;-49
2023/06/01 06:31:11;;;;;;;15.37;4.60;;;12.60;99.90;;;;;;5038873;28;20244;-48
2023/06/01 06:33:39;;;;;;;13.43;4.47;;;12.70;99.90;;;;;;5043997;28;20756;-48
2023/06/01 06:36:08;;;;;;;12.70;4.50;;;12.70;99.90;;;;;;5046474;28;20239;-49
2023/06/01 06:38:36;;;;;;;10.70;4.13;;;12.70;99.90;;;;;;5040745;28;20576;-48
2023/06/01 06:41:04;;;;;;;10.03;4.10;;;12.70;99.90;;;;;;5042712;28;20273;-47
2023/06/01 06:43:37;;;;;;;11.20;4.03;;;12.60;99.90;;;;;;5045208;28;20236;-49
2023/06/01 06:46:05;;;;;;;8.77;4.10;;;12.60;99.90;;;;;;5041508;28;20223;-50
2023/06/01 06:48:33;;;;;;;11.60;4.63;;;12.70;99.90;;;;;;5038529;28;20246;-51
2023/06/01 06:51:02;;;;;;;13.53;4.43;;;12.70;99.90;;;;;;5040681;28;20239;-48
2023/06/01 06:53:33;;;;;;;13.10;4.63;;;12.80;99.90;;;;;;5043211;28;20238;-49
2023/06/01 06:56:01;;;;;;;11.83;4.73;;;12.90;99.90;;;;;;5041064;28;20236;-47
2023/06/01 06:58:29;;;;;;;11.30;4.07;;;12.90;99.90;;;;;;5047509;28;21111;-47
2023/06/01 07:00:59;;;;;;;12.70;4.53;;;12.90;99.90;;;;;;5035937;28;20598;-50
2023/06/01 07:03:28;;;;;;;12.97;4.30;;;13.00;99.90;;;;;;5040094;28;20702;-47
2023/06/01 07:05:58;;;;;;;17.27;4.37;;;13.00;99.90;;;;;;5041175;28;20297;-50
2023/06/01 07:08:27;;;;;;;14.97;4.40;;;13.00;99.90;;;;;;5044669;28;20339;-48
2023/06/01 07:10:56;;;;;;;17.00;4.60;;;12.90;99.90;;;;;;5038674;28;20236;-50
2023/06/01 07:13:24;;;;;;;12.93;4.53;;;12.90;99.90;;;;;;5042827;28;20273;-49
2023/06/01 07:15:53;;;;;;;11.10;4.33;;;12.90;99.90;;;;;;5043441;28;20335;-48
2023/06/01 07:18:23;;;;;;;11.70;4.07;;;13.00;99.90;;;;;;5040059;28;20250;-49
2023/06/01 07:20:51;;;;;;;9.87;3.50;;;13.10;99.90;;;;;;5036455;28;20417;-48
2023/06/01 07:23:19;;;;;;;10.80;4.27;;;13.00;99.90;;;;;;5041483;28;20234;-48
2023/06/01 07:25:47;;;;;;;10.23;4.10;;;13.10;99.90;;;;;;5041043;28;20663;-49
2023/06/01 07:28:18;;;;;;;11.90;4.00;;;13.20;99.90;;;;;;5042641;28;20235;-51
2023/06/01 07:30:46;;;;;;;9.37;3.47;;;13.20;99.90;;;;;;5037764;28;20342;-51
2023/06/01 07:33:16;;;;;;;10.33;4.03;;;13.20;99.90;;;;;;5041897;28;20305;-50
2023/06/01 07:35:45;;;;;;;10.93;4.20;;;13.10;99.90;;;;;;5041038;28;20676;-50
2023/06/01 07:38:14;;;;;;;11.27;4.23;;;13.20;99.90;;;;;;5043800;28;20230;-48
2023/06/01 07:40:43;;;;;;;12.07;3.70;;;13.30;99.90;;;;;;5040266;28;20245;-50
2023/06/01 07:43:10;;;;;;;8.50;3.60;;;13.30;99.90;;;;;;5040998;28;20244;-51
2023/06/01 07:45:40;;;;;;;10.70;3.90;;;13.40;99.90;;;;;;5041026;28;20225;-48
2023/06/01 07:48:09;;;;;;;13.00;3.80;;;13.40;99.90;;;;;;5045295;28;20639;-47
2023/06/01 07:50:40;;;;;;;10.90;3.87;;;13.40;99.90;;;;;;5035849;28;20255;-50
2023/06/01 07:53:10;;;;;;;11.50;4.40;;;13.40;99.90;;;;;;5041288;28;20266;-51
2023/06/01 07:55:38;;;;;;;15.70;4.10;;;13.50;99.90;;;;;;5038468;28;20239;-51
2023/06/01 07:58:06;;;;;;;12.43;4.30;;;13.40;99.90;;;;;;5045073;28;20223;-48
2023/06/01 08:00:34;;;;;;;10.83;4.20;;;13.50;99.90;;;;;;5043220;28;20238;-49
2023/06/01 08:03:05;;;;;;;11.77;3.90;;;13.60;99.90;;;;;;5039355;28;20247;-48
2023/06/01 08:05:35;;;;;;;7.80;3.83;;;13.50;99.90;;;;;;5041360;28;20310;-47
2023/06/01 08:08:06;;;;;;;13.60;3.50;;;13.50;99.90;;;;;;5039320;28;20694;-49
2023/06/01 08:10:35;;;;;;;9.10;3.03;;;13.40;99.90;;;;;;5038623;28;20710;-49
2023/06/01 08:13:04;;;;;;;9.47;3.40;;;13.40;99.90;;;;;;5043237;28;20220;-50
2023/06/01 08:15:32;;;;;;;10.73;3.10;;;13.40;99.90;;;;;;5041039;28;20622;-49
2023/06/01 08:18:00;;;;;;;10.67;3.77;;;13.30;99.90;;;;;;5040039;28;20255;-48
2023/06/01 08:20:29;;;;;;;8.57;3.10;;;13.40;99.90;;;;;;5039972;28;20718;-49
2023/06/01 08:22:57;;;;;;;5.17;2.63;;;13.50;99.90;;;;;;5041199;28;20370;-50
2023/06/01 08:25:25;;;;;;;7.73;2.90;;;13.60;99.90;;;;;;5040962;28;20234;-49
2023/06/01 08:27:56;;;;;;;9.53;2.50;;;13.60;99.90;;;;;;5041418;28;20601;-49
2023/06/01 08:30:26;;;;;;;6.13;2.37;;;13.70;99.90;;;;;;5041628;28;20752;-47
2023/06/01 08:32:55;;;;;;;7.47;2.67;;;13.70;99.90;;;;;;5040851;28;20238;-48
2023/06/01 08:35:23;;;;;;;6.10;2.63;;;13.80;99.90;;;;;;5042779;28;20245;-47
2023/06/01 08:37:51;;;;;;;9.90;3.43;;;13.80;99.90;;;;;;5044884;28;20228;-51
2023/06/01 08:40:20;;;;;;;7.70;2.77;;;13.90;99.90;;;;;;5041347;28;20233;-49
2023/06/01 08:42:57;;;;;;;9.37;2.97;;;13.70;99.90;;;;;;5049347;28;20231;-51
2023/06/01 08:45:28;;;;;;;9.70;2.90;;;13.60;99.90;;;;;;5037594;28;20227;-47
2023/06/01 08:47:57;;;;;;;7.33;3.00;;;13.70;99.90;;;;;;5040178;28;20715;-50
2023/06/01 08:50:28;;;;;;;6.37;2.70;;;13.60;99.90;;;;;;5038107;28;20703;-48
2023/06/01 08:52:58;;;;;;;9.17;2.70;;;13.70;99.90;;;;;;5041137;28;21136;-49
2023/06/01 08:55:26;;;;;;;12.63;3.30;;;13.90;99.90;;;;;;5050169;28;20227;-50
2023/06/01 08:57:55;;;;;;;7.60;2.60;;;13.80;99.90;;;;;;5052370;28;20310;-50
2023/06/01 09:00:24;;;;;;;8.43;2.90;;;13.80;99.90;;;;;;5042565;28;20262;-49
2023/06/01 09:02:54;;;;;;;6.20;2.90;;;13.70;99.90;;;;;;5037070;28;20707;-51
2023/06/01 09:05:22;;;;;;;8.27;3.50;;;13.70;99.90;;;;;;5043847;28;20219;-49
2023/06/01 09:07:50;;;;;;;6.97;2.80;;;13.60;99.90;;;;;;5039771;28;20598;-49
2023/06/01 09:10:24;;;;;;;10.20;3.20;;;13.60;99.90;;;;;;5038345;28;20236;-46
2023/06/01 09:12:53;;;;;;;11.33;3.20;;;13.80;99.90;;;;;;5043720;28;20234;-48
2023/06/01 09:15:23;;;;;;;9.07;3.37;;;13.90;99.90;;;;;;5043640;28;20232;-49
2023/06/01 09:18:06;;;;;;;11.00;3.33;;;13.90;99.90;;;;;;5039874;28;20601;-50
2023/06/01 09:20:34;;;;;;;9.80;3.40;;;13.80;99.90;;;;;;5039997;28;20627;-50
2023/06/01 09:23:03;;;;;;;7.57;3.20;;;13.70;99.90;;;;;;5038322;28;20246;-52
2023/06/01 09:25:32;;;;;;;12.17;3.70;;;13.70;99.90;;;;;;5037311;28;20725;-49
2023/06/01 09:28:02;;;;;;;7.83;3.23;;;13.70;99.90;;;;;;5043362;28;20733;-49
2023/06/01 09:30:40;;;;;;;9.83;3.30;;;13.70;99.90;;;;;;5039474;28;20256;-51
2023/06/01 09:33:14;;;;;;;6.50;2.83;;;13.80;99.90;;;;;;5044796;28;20707;-50
2023/06/01 09:35:44;;;;;;;9.50;3.33;;;13.90;99.90;;;;;;5047161;28;20638;-50
2023/06/01 09:38:13;;;;;;;8.80;3.20;;;14.00;99.90;;;;;;5041340;28;20238;-49
2023/06/01 09:40:56;;;;;;;8.13;2.90;;;14.10;99.90;;;;;;5041674;28;20625;-47
2023/06/01 09:43:25;;;;;;;9.00;3.33;;;14.20;99.90;;;;;;5043084;28;20225;-50
2023/06/01 09:46:09;;;;;;;10.93;3.17;;;14.20;99.90;;;;;;5042384;28;20219;-51
2023/06/01 09:48:39;;;;;;;9.97;3.63;;;14.40;99.90;;;;;;5042749;28;20251;-49
2023/06/01 09:51:22;;;;;;;8.03;2.90;;;14.30;99.90;;;;;;5042022;28;20700;-48
2023/06/01 09:53:51;;;;;;;8.23;3.30;;;14.30;99.90;;;;;;5046864;28;20254;-49
2023/06/01 09:56:20;;;;;;;11.27;3.23;;;14.20;99.90;;;;;;5043242;28;20711;-50
2023/06/01 09:58:56;;;;;;;7.40;2.80;;;14.00;99.90;;;;;;5040662;28;20228;-48
2023/06/01 10:01:28;;;;;;;5.80;2.90;;;14.00;99.90;;;;;;5039145;28;20245;-50
2023/06/01 10:04:01;;;;;;;11.77;3.77;;;14.10;99.90;;;;;;5037585;28;20695;-51
2023/06/01 10:06:33;;;;;;;7.30;3.20;;;14.20;99.90;;;;;;5044527;28;20232;-49
2023/06/01 10:09:01;;;;;;;10.83;3.30;;;14.40;99.90;;;;;;5046916;28;20224;-47
2023/06/01 10:11:30;;;;;;;6.27;2.73;;;14.40;99.90;;;;;;5040351;28;20642;-49
2023/06/01 10:13:59;;;;;;;7.70;3.27;;;14.50;99.90;;;;;;5041493;28;20568;-49
2023/06/01 10:16:27;;;;;;;8.10;3.27;;;14.50;99.90;;;;;;5039172;28;20225;-50
2023/06/01 10:18:58;;;;;;;11.47;3.57;;;14.40;99.90;;;;;;5044238;28;20760;-51
2023/06/01 10:21:28;;;;;;;13.37;4.20;;;14.50;99.90;;;;;;5038174;28;20278;-48
2023/06/01 10:23:56;;;;;;;11.60;3.57;;;14.60;99.90;;;;;;5044401;28;20243;-50
2023/06/01 10:26:26;;;;;;;10.33;3.90;;;14.60;99.90;;;;;;5040767;28;20310;-49
2023/06/01 10:28:55;;;;;;;10.27;3.40;;;14.60;99.90;;;;;;5038924;28;20230;-48
2023/06/01 10:31:37;;;;;;;10.30;3.37;;;14.60;99.90;;;;;;5042362;28;20857;-50
2023/06/01 10:34:08;;;;;;;10.90;3.30;;;14.60;99.90;;;;;;5046807;28;20230;-50
2023/06/01 10:37:11;;;;;;;8.63;3.53;;;14.60;99.90;;;;;;5039733;28;20751;-50
2023/06/01 10:39:40;;;;;;;11.10;3.47;;;14.40;99.90;;;;;;5042188;28;20228;-50
2023/06/01 10:42:37;;;;;;;6.50;3.17;;;14.40;99.90;;;;;;5039527;28;20601;-48
2023/06/01 10:45:07;;;;;;;12.60;3.20;;;14.20;99.90;;;;;;5048217;28;20221;-48
2023/06/01 10:47:48;;;;;;;8.20;3.13;;;14.20;99.90;;;;;;5051953;28;20580;-47
2023/06/01 10:50:19;;;;;;;10.63;3.60;;;14.50;99.90;;;;;;5051791;28;20228;-51
2023/06/01 10:52:48;;;;;;;11.93;3.77;;;14.50;99.90;;;;;;5056441;28;20246;-48
2023/06/01 10:55:26;;;;;;;10.37;3.10;;;14.70;99.90;;;;;;5047254;28;20228;-48
2023/06/01 10:58:21;;;;;;;8.00;3.33;;;14.80;99.90;;;;;;5042507;28;20260;-50
2023/06/01 11:00:49;;;;;;;9.37;2.93;;;14.70;99.90;;;;;;5035064;28;20275;-48
2023/06/01 11:03:45;;;;;;;12.30;3.67;;;14.70;99.90;;;;;;5037686;28;20314;-50
2023/06/01 11:06:31;;;;;;;8.63;3.13;;;14.80;99.90;;;;;;5036175;28;20224;-48
2023/06/01 11:09:01;;;;;;;7.37;3.20;;;14.90;99.90;;;;;;5033737;28;20686;-49
2023/06/01 11:11:59;;;;;;;8.40;2.77;;;15.10;99.90;;;;;;5035351;28;20229;-50
2023/06/01 11:14:31;;;;;;;11.63;3.03;;;15.10;99.90;;;;;;5039791;28;20220;-51
2023/06/01 11:17:28;;;;;;;11.13;3.43;;;15.10;99.90;;;;;;5041332;28;20231;-50
2023/06/01 11:20:11;;;;;;;12.47;3.30;;;14.80;99.90;;;;;;5039979;28;20255;-49
2023/06/01 11:22:40;;;;;;;7.97;3.00;;;14.70;99.90;;;;;;5038796;28;20240;-48
2023/06/01 11:25:12;;;;;;;8.83;2.83;;;14.70;99.90;;;;;;5040379;28;20307;-49
2023/06/01 11:27:45;;;;;;;13.93;3.27;;;14.80;99.90;;;;;;5043567;28;20705;-49
2023/06/01 11:30:20;;;;;;;12.07;2.97;;;14.90;99.90;;;;;;5038930;28;20259;-50
2023/06/01 11:32:52;;;;;;;11.93;3.20;;;15.00;99.90;;;;;;5044087;28;20241;-48
2023/06/01 11:35:21;;;;;;;8.83;3.07;;;14.90;99.90;;;;;;5044893;28;20730;-49
2023/06/01 11:37:56;;;;;;;9.00;3.00;;;14.80;99.90;;;;;;5039199;28;20592;-51
2023/06/01 11:40:25;;;;;;;8.40;3.10;;;14.80;99.90;;;;;;5040717;28;20325;-49
2023/06/01 11:42:57;;;;;;;6.00;2.63;;;14.80;99.90;;;;;;5041464;28;20241;-48
2023/06/01 11:45:26;;;;;;;9.87;2.70;;;14.80;99.90;;;;;;5041160;28;20240;-48
2023/06/01 11:47:54;;;;;;;10.33;2.43;;;15.00;99.90;;;;;;5043052;28;20228;-50
2023/06/01 11:50:25;;;;;;;5.47;2.23;;;15.20;99.90;;;;;;5040892;28;20568;-49
2023/06/01 11:52:54;;;;;;;8.80;2.20;;;15.20;99.90;;;;;;5043238;28;20311;-52
2023/06/01 11:55:22;;;;;;;5.80;2.10;;;15.20;99.90;;;;;;5040907;28;20912;-50
2023/06/01 11:57:51;;;;;;;7.23;2.80;;;15.20;99.90;;;;;;5044621;28;20231;-49
2023/06/01 12:00:20;;;;;;;7.63;2.33;;;15.20;99.90;;;;;;5037227;28;20236;-47
2023/06/01 12:02:48;;;;;;;6.30;2.23;;;15.20;99.90;;;;;;5039615;28;20700;-49
2023/06/01 12:05:16;;;;;;;7.50;2.10;;;15.10;99.90;;;;;;5044638;28;20238;-47
2023/06/01 12:07:46;;;;;;;5.93;1.73;;;15.10;99.90;;;;;;5040264;28;20632;-47
2023/06/01 12:10:19;;;;;;;6.83;2.27;;;15.20;99.90;;;;;;5037821;28;20761;-51
2023/06/01 12:12:47;;;;;;;7.63;2.70;;;15.20;99.90;;;;;;5043276;28;20230;-49
2023/06/01 12:15:16;;;;;;;7.47;2.50;;;15.10;99.90;;;;;;5041802;28;20711;-49
2023/06/01 12:17:49;;;;;;;7.43;2.00;;;15.00;99.90;;;;;;5039461;28;20250;-49
2023/06/01 12:20:29;;;;;;;6.97;1.90;;;14.90;99.90;;;;;;5039470;28;20238;-50
2023/06/01 12:22:58;;;;;;;7.83;1.80;;;14.80;99.90;;;;;;5039641;28;20245;-50
2023/06/01 12:25:27;;;;;;;8.23;2.00;;;14.90;99.90;;;;;;5039787;28;20254;-48
2023/06/01 12:28:06;;;;;;;7.27;2.20;;;14.90;99.90;;;;;;5043708;28;20568;-50
2023/06/01 12:30:35;;;;;;;8.93;2.10;;;14.90;99.90;;;;;;5040624;28;20241;-51
2023/06/01 12:33:04;;;;;;;7.70;2.03;;;14.90;99.90;;;;;;5042560;28;20258;-48
2023/06/01 12:35:32;;;;;;;8.07;2.07;;;15.00;99.90;;;;;;5042061;28;20305;-50
2023/06/01 12:38:06;;;;;;;6.83;2.00;;;15.20;99.90;;;;;;5039327;28;20724;-49
2023/06/01 12:40:36;;;;;;;7.50;2.10;;;15.30;99.90;;;;;;5038267;28;20231;-49
2023/06/01 12:43:05;;;;;;;8.47;2.23;;;15.40;99.90;;;;;;5039103;28;20227;-49
2023/06/01 12:45:37;;;;;;;7.73;1.93;;;15.30;99.90;;;;;;5039005;28;20232;-50
2023/06/01 12:48:06;;;;;;;8.23;2.00;;;15.10;99.90;;;;;;5044530;28;20234;-47
2023/06/01 12:50:34;;;;;;;9.57;2.10;;;15.30;99.90;;;;;;5038103;28;21464;-49
2023/06/01 12:53:03;;;;;;;5.53;1.70;;;15.40;99.90;;;;;;5039430;28;20236;-49
2023/06/01 12:55:31;;;;;;;7.63;1.90;;;15.40;99.90;;;;;;5040563;28;20234;-47
2023/06/01 12:58:01;;;;;;;9.13;2.20;;;15.30;99.90;;;;;;5036110;28;20238;-49